createdAt,value
2023-01-29T00:00:00.791Z,-1.90
2023-01-29T00:02:27.327Z,-1.89
2023-01-29T00:04:58.735Z,-1.89
2023-01-29T00:07:25.526Z,-1.89
2023-01-29T00:09:52.192Z,-1.88
2023-01-29T00:12:18.611Z,-1.86
2023-01-29T00:14:45.144Z,-1.85
2023-01-29T00:17:11.898Z,-1.85
2023-01-29T00:19:38.689Z,-1.85
2023-01-29T00:22:05.286Z,-1.85
2023-01-29T00:24:31.831Z,-1.85
2023-01-29T00:26:58.291Z,-1.86
2023-01-29T00:29:24.780Z,-1.87
2023-01-29T00:31:51.518Z,-1.86
2023-01-29T00:34:18.287Z,-1.85
2023-01-29T00:36:44.829Z,-1.85
2023-01-29T00:39:11.371Z,-1.85
2023-01-29T00:41:38.624Z,-1.85
2023-01-29T00:44:06.656Z,-1.85
2023-01-29T00:46:33.250Z,-1.85
2023-01-29T00:49:00.932Z,-1.84
2023-01-29T00:51:27.661Z,-1.87
2023-01-29T00:53:54.134Z,-1.91
2023-01-29T00:56:20.754Z,-1.94
2023-01-29T00:58:47.187Z,-1.95
2023-01-29T01:01:13.931Z,-1.95
2023-01-29T01:03:40.465Z,-1.96
2023-01-29T01:06:10.369Z,-1.96
2023-01-29T01:08:37.228Z,-1.98
2023-01-29T01:11:07.463Z,-1.99
2023-01-29T01:13:35.535Z,-2.01
2023-01-29T01:16:02.037Z,-2.01
2023-01-29T01:18:31.592Z,-2.01
2023-01-29T01:20:58.636Z,-2.00
2023-01-29T01:23:25.805Z,-2.01
2023-01-29T01:25:52.338Z,-2.03
2023-01-29T01:28:18.876Z,-2.04
2023-01-29T01:30:45.449Z,-2.05
2023-01-29T01:33:12.060Z,-2.05
2023-01-29T01:35:39.647Z,-2.04
2023-01-29T01:38:06.264Z,-2.05
2023-01-29T01:40:33.128Z,-2.06
2023-01-29T01:43:00.844Z,-2.05
2023-01-29T01:45:37.512Z,-2.07
2023-01-29T01:48:12.827Z,-2.10
2023-01-29T01:50:46.756Z,-2.08
2023-01-29T01:53:20.725Z,-2.05
2023-01-29T01:55:54.529Z,-2.01
2023-01-29T01:58:33.627Z,-2.00
2023-01-29T02:01:01.399Z,-1.99
2023-01-29T02:03:31.380Z,-1.99
2023-01-29T02:05:59.977Z,-1.99
2023-01-29T02:08:37.920Z,-2.00
2023-01-29T02:11:06.076Z,-2.02
2023-01-29T02:13:32.587Z,-2.02
2023-01-29T02:15:59.119Z,-2.00
2023-01-29T02:18:25.907Z,-1.97
2023-01-29T02:21:08.231Z,-1.95
2023-01-29T02:23:56.625Z,-1.93
2023-01-29T02:26:42.233Z,-1.91
2023-01-29T02:29:23.211Z,-1.92
2023-01-29T02:32:08.852Z,-1.91
2023-01-29T02:34:53.367Z,-1.90
2023-01-29T02:37:25.971Z,-1.93
2023-01-29T02:40:05.126Z,-1.91
2023-01-29T02:42:38.875Z,-1.91
2023-01-29T02:45:22.636Z,-1.92
2023-01-29T02:47:58.258Z,-1.92
2023-01-29T02:50:36.742Z,-1.92
2023-01-29T02:53:14.272Z,-1.93
2023-01-29T02:56:13.474Z,-1.94
2023-01-29T02:58:43.631Z,-1.94
2023-01-29T03:01:17.195Z,-1.94
2023-01-29T03:03:49.479Z,-1.92
2023-01-29T03:06:42.073Z,-1.92
2023-01-29T03:09:24.355Z,-1.93
2023-01-29T03:11:54.605Z,-1.94
2023-01-29T03:14:36.756Z,-1.95
2023-01-29T03:17:09.432Z,-1.99
2023-01-29T03:19:41.861Z,-2.03
2023-01-29T03:22:11.722Z,-2.06
2023-01-29T03:24:46.701Z,-2.10
2023-01-29T03:27:16.820Z,-2.13
2023-01-29T03:29:49.270Z,-2.15
2023-01-29T03:32:18.826Z,-2.15
2023-01-29T03:34:50.309Z,-2.17
2023-01-29T03:37:23.713Z,-2.19
2023-01-29T03:39:50.895Z,-2.19
2023-01-29T03:42:54.081Z,-2.22
2023-01-29T03:45:31.371Z,-2.22
2023-01-29T03:48:28.552Z,-2.23
2023-01-29T03:51:19.829Z,-2.25
2023-01-29T03:53:55.172Z,-2.24
2023-01-29T03:56:30.801Z,-2.25
2023-01-29T03:59:16.137Z,-2.26
2023-01-29T04:01:51.245Z,-2.27
2023-01-29T04:04:26.683Z,-2.29
2023-01-29T04:06:57.513Z,-2.30
2023-01-29T04:09:34.347Z,-2.29
2023-01-29T04:12:14.371Z,-2.30
2023-01-29T04:14:40.951Z,-2.31
2023-01-29T04:17:16.546Z,-2.32
2023-01-29T04:19:43.859Z,-2.33
2023-01-29T04:22:34.215Z,-2.33
2023-01-29T04:25:05.816Z,-2.34
2023-01-29T04:27:38.499Z,-2.34
2023-01-29T04:30:35.764Z,-2.35
2023-01-29T04:33:44.160Z,-2.34
2023-01-29T04:36:21.451Z,-2.35
2023-01-29T04:38:57.937Z,-2.35
2023-01-29T04:41:36.063Z,-2.35
2023-01-29T04:44:20.948Z,-2.36
2023-01-29T04:46:47.353Z,-2.37
2023-01-29T04:49:32.663Z,-2.37
2023-01-29T04:52:17.523Z,-2.36
2023-01-29T04:55:08.747Z,-2.36
2023-01-29T04:57:52.678Z,-2.36
2023-01-29T05:00:30.298Z,-2.36
2023-01-29T05:02:57.286Z,-2.37
2023-01-29T05:05:24.160Z,-2.38
2023-01-29T05:07:51.115Z,-2.39
2023-01-29T05:10:20.462Z,-2.39
2023-01-29T05:12:52.860Z,-2.41
2023-01-29T05:15:25.330Z,-2.42
2023-01-29T05:17:52.565Z,-2.43
2023-01-29T05:20:20.276Z,-2.45
2023-01-29T05:22:47.898Z,-2.46
2023-01-29T05:25:26.930Z,-2.48
2023-01-29T05:27:54.519Z,-2.50
2023-01-29T05:30:21.010Z,-2.52
2023-01-29T05:32:47.474Z,-2.52
2023-01-29T05:35:14.144Z,-2.53
2023-01-29T05:37:40.659Z,-2.53
2023-01-29T05:40:08.142Z,-2.54
2023-01-29T05:42:34.597Z,-2.54
2023-01-29T05:45:01.063Z,-2.54
2023-01-29T05:47:27.581Z,-2.54
2023-01-29T05:49:54.076Z,-2.55
2023-01-29T05:52:20.571Z,-2.55
2023-01-29T05:54:47.823Z,-2.55
2023-01-29T05:57:15.012Z,-2.55
2023-01-29T05:59:41.780Z,-2.54
2023-01-29T06:02:08.865Z,-2.54
2023-01-29T06:04:35.474Z,-2.55
2023-01-29T06:07:02.016Z,-2.54
2023-01-29T06:09:28.507Z,-2.53
2023-01-29T06:11:55.162Z,-2.51
2023-01-29T06:14:22.181Z,-2.50
2023-01-29T06:16:48.791Z,-2.49
2023-01-29T06:19:15.371Z,-2.49
2023-01-29T06:21:41.883Z,-2.50
2023-01-29T06:24:09.235Z,-2.51
2023-01-29T06:26:35.792Z,-2.52
2023-01-29T06:29:02.253Z,-2.54
2023-01-29T06:31:38.554Z,-2.53
2023-01-29T06:34:09.457Z,-2.53
2023-01-29T06:36:36.408Z,-2.54
2023-01-29T06:39:03.843Z,-2.55
2023-01-29T06:41:30.700Z,-2.55
2023-01-29T06:43:57.332Z,-2.56
2023-01-29T06:46:24.054Z,-2.56
2023-01-29T06:48:50.727Z,-2.57
2023-01-29T06:51:17.621Z,-2.57
2023-01-29T06:53:46.202Z,-2.58
2023-01-29T06:56:13.292Z,-2.59
2023-01-29T06:58:39.955Z,-2.59
2023-01-29T07:01:09.705Z,-2.58
2023-01-29T07:03:36.636Z,-2.56
2023-01-29T07:06:03.575Z,-2.55
2023-01-29T07:08:30.253Z,-2.56
2023-01-29T07:11:00.870Z,-2.55
2023-01-29T07:13:27.578Z,-2.53
2023-01-29T07:15:54.134Z,-2.53
2023-01-29T07:18:20.626Z,-2.52
2023-01-29T07:20:47.431Z,-2.50
2023-01-29T07:23:14.993Z,-2.47
2023-01-29T07:25:41.819Z,-2.44
2023-01-29T07:28:08.305Z,-2.41
2023-01-29T07:30:36.118Z,-2.39
2023-01-29T07:33:07.604Z,-2.39
2023-01-29T07:35:38.519Z,-2.41
2023-01-29T07:38:05.012Z,-2.39
2023-01-29T07:40:31.510Z,-2.38
2023-01-29T07:43:02.616Z,-2.36
2023-01-29T07:45:30.152Z,-2.35
2023-01-29T07:47:57.389Z,-2.35
2023-01-29T07:50:25.419Z,-2.37
2023-01-29T07:52:52.102Z,-2.37
2023-01-29T07:55:18.528Z,-2.38
2023-01-29T07:57:45.135Z,-2.41
2023-01-29T08:00:12.966Z,-2.43
2023-01-29T08:02:39.921Z,-2.45
2023-01-29T08:05:07.258Z,-2.47
2023-01-29T08:07:33.931Z,-2.50
2023-01-29T08:10:00.414Z,-2.49
2023-01-29T08:12:26.938Z,-2.55
2023-01-29T08:14:53.745Z,-2.62
2023-01-29T08:17:20.205Z,-2.68
2023-01-29T08:19:46.759Z,-2.73
2023-01-29T08:22:13.202Z,-2.75
2023-01-29T08:24:53.362Z,-2.77
2023-01-29T08:27:26.117Z,-2.79
2023-01-29T08:29:52.562Z,-2.80
2023-01-29T08:32:18.985Z,-2.82
2023-01-29T08:34:45.586Z,-2.84
2023-01-29T08:37:12.091Z,-2.86
2023-01-29T08:39:38.730Z,-2.89
2023-01-29T08:42:05.268Z,-2.93
2023-01-29T08:44:31.693Z,-2.96
2023-01-29T08:46:58.151Z,-2.98
2023-01-29T08:49:25.109Z,-2.98
2023-01-29T08:51:51.599Z,-2.98
2023-01-29T08:54:18.259Z,-2.97
2023-01-29T08:56:44.813Z,-2.96
2023-01-29T08:59:11.343Z,-2.93
2023-01-29T09:01:37.906Z,-2.90
2023-01-29T09:04:04.642Z,-2.88
2023-01-29T09:06:31.163Z,-2.84
2023-01-29T09:08:57.571Z,-2.80
2023-01-29T09:11:24.302Z,-2.74
2023-01-29T09:13:50.801Z,-2.67
2023-01-29T09:16:17.401Z,-2.62
2023-01-29T09:18:43.924Z,-2.63
2023-01-29T09:21:11.326Z,-2.63
2023-01-29T09:23:38.097Z,-2.62
2023-01-29T09:26:04.697Z,-2.60
2023-01-29T09:28:31.177Z,-2.58
2023-01-29T09:31:01.837Z,-2.61
2023-01-29T09:33:28.681Z,-2.61
2023-01-29T09:35:55.192Z,-2.57
2023-01-29T09:38:21.843Z,-2.55
2023-01-29T09:41:00.525Z,-2.53
2023-01-29T09:44:02.101Z,-2.53
2023-01-29T09:46:42.290Z,-2.46
2023-01-29T09:49:23.948Z,-2.40
2023-01-29T09:51:53.884Z,-2.42
2023-01-29T09:54:29.843Z,-2.39
2023-01-29T09:56:58.000Z,-2.27
2023-01-29T09:59:30.096Z,-2.24
2023-01-29T10:02:09.346Z,-2.17
2023-01-29T10:04:54.598Z,-2.10
2023-01-29T10:07:52.605Z,-2.05
2023-01-29T10:10:26.116Z,-2.11
2023-01-29T10:13:20.517Z,-2.01
2023-01-29T10:15:58.930Z,-1.91
2023-01-29T10:19:02.748Z,-1.75
2023-01-29T10:21:57.956Z,-1.60
2023-01-29T10:24:41.729Z,-1.48
2023-01-29T10:27:16.769Z,-1.42
2023-01-29T10:29:45.439Z,-1.52
2023-01-29T10:32:16.429Z,-1.54
2023-01-29T10:34:49.945Z,-1.51
2023-01-29T10:37:20.632Z,-1.62
2023-01-29T10:39:47.422Z,-1.72
2023-01-29T10:42:29.028Z,-1.54
2023-01-29T10:45:07.993Z,-1.37
2023-01-29T10:47:40.459Z,-1.37
2023-01-29T10:50:28.479Z,-1.29
2023-01-29T10:53:24.636Z,-1.02
2023-01-29T10:56:23.097Z,-0.68
2023-01-29T10:59:29.182Z,-0.57
2023-01-29T11:01:59.889Z,-0.51
2023-01-29T11:04:31.970Z,-0.48
2023-01-29T11:06:59.962Z,-0.43
2023-01-29T11:12:06.819Z,-0.57
2023-01-29T11:14:33.322Z,-0.55
2023-01-29T11:17:00.095Z,-0.47
2023-01-29T11:19:44.462Z,-0.44
2023-01-29T11:22:20.229Z,-0.45
2023-01-29T11:25:07.616Z,-0.53
2023-01-29T11:27:43.873Z,-0.62
2023-01-29T11:30:41.525Z,-0.58
2023-01-29T11:33:20.185Z,-0.54
2023-01-29T11:35:46.912Z,-0.60
2023-01-29T11:38:16.525Z,-0.74
2023-01-29T11:40:44.212Z,-0.77
2023-01-29T11:43:18.294Z,-0.66
2023-01-29T11:45:45.689Z,-0.54
2023-01-29T11:48:21.403Z,-0.40
2023-01-29T11:50:56.766Z,-0.43
2023-01-29T11:53:45.231Z,-0.57
2023-01-29T11:56:28.786Z,-0.58
2023-01-29T11:58:58.120Z,-0.50
2023-01-29T12:01:37.385Z,-0.51
2023-01-29T12:04:20.245Z,-0.41
2023-01-29T12:06:49.718Z,-0.24
2023-01-29T12:09:19.394Z,-0.04
2023-01-29T12:11:45.896Z,0.07
2023-01-29T12:14:28.736Z,0.24
2023-01-29T12:17:31.048Z,0.20
2023-01-29T12:20:04.622Z,0.16
2023-01-29T12:22:47.848Z,0.09
2023-01-29T12:25:22.781Z,0.07
2023-01-29T12:28:14.819Z,-0.05
2023-01-29T12:30:44.359Z,-0.19
2023-01-29T12:33:43.997Z,-0.08
2023-01-29T12:36:19.504Z,0.17
2023-01-29T12:38:45.995Z,0.39
2023-01-29T12:41:37.761Z,0.48
2023-01-29T12:44:11.825Z,0.58
2023-01-29T12:46:44.425Z,0.71
2023-01-29T12:49:16.443Z,0.63
2023-01-29T12:51:51.070Z,0.54
2023-01-29T12:54:34.495Z,0.34
2023-01-29T12:57:04.410Z,0.06
2023-01-29T12:59:47.520Z,-0.11
2023-01-29T13:02:40.437Z,-0.25
2023-01-29T13:05:16.139Z,-0.41
2023-01-29T13:07:52.335Z,-0.54
2023-01-29T13:10:29.320Z,-0.66
2023-01-29T13:13:05.680Z,-0.72
2023-01-29T13:15:39.179Z,-0.69
2023-01-29T13:18:30.302Z,-0.76
2023-01-29T13:20:57.309Z,-0.79
2023-01-29T13:23:41.905Z,-0.77
2023-01-29T13:26:09.005Z,-0.75
2023-01-29T13:28:36.420Z,-0.72
2023-01-29T13:31:31.568Z,-0.57
2023-01-29T13:34:13.307Z,-0.34
2023-01-29T13:36:47.917Z,-0.29
2023-01-29T13:39:35.645Z,-0.30
2023-01-29T13:42:14.795Z,-0.32
2023-01-29T13:44:41.677Z,-0.36
2023-01-29T13:47:11.472Z,-0.50
2023-01-29T13:49:53.295Z,-0.55
2023-01-29T13:52:37.269Z,-0.65
2023-01-29T13:55:25.980Z,-0.79
2023-01-29T13:57:57.063Z,-0.92
2023-01-29T14:00:23.495Z,-1.02
2023-01-29T14:02:55.945Z,-1.07
2023-01-29T14:05:31.595Z,-1.04
2023-01-29T14:08:00.092Z,-1.04
2023-01-29T14:10:29.383Z,-1.06
2023-01-29T14:13:05.088Z,-1.05
2023-01-29T14:15:36.257Z,-1.06
2023-01-29T14:18:05.115Z,-1.00
2023-01-29T14:20:48.965Z,-0.91
2023-01-29T14:23:51.403Z,-0.89
2023-01-29T14:26:30.053Z,-0.97
2023-01-29T14:29:21.656Z,-0.97
2023-01-29T14:32:23.573Z,-1.07
2023-01-29T14:35:01.703Z,-1.20
2023-01-29T14:37:35.894Z,-1.29
2023-01-29T14:40:11.666Z,-1.42
2023-01-29T14:43:01.347Z,-1.52
2023-01-29T14:45:30.680Z,-1.60
2023-01-29T14:48:11.653Z,-1.69
2023-01-29T14:50:42.593Z,-1.80
2023-01-29T14:53:22.940Z,-1.86
2023-01-29T14:56:01.360Z,-1.95
2023-01-29T14:58:38.766Z,-2.03
2023-01-29T15:01:14.969Z,-2.11
2023-01-29T15:03:51.401Z,-2.17
2023-01-29T15:06:33.616Z,-2.23
2023-01-29T15:09:18.261Z,-2.30
2023-01-29T15:12:13.779Z,-2.37
2023-01-29T15:15:18.264Z,-2.43
2023-01-29T15:18:05.641Z,-2.51
2023-01-29T15:20:36.556Z,-2.58
2023-01-29T15:23:05.276Z,-2.65
2023-01-29T15:25:37.497Z,-2.72
2023-01-29T15:28:05.455Z,-2.78
2023-01-29T15:30:34.287Z,-2.83
2023-01-29T15:33:02.702Z,-2.88
2023-01-29T15:35:35.500Z,-2.92
2023-01-29T15:38:21.403Z,-2.97
2023-01-29T15:41:02.637Z,-3.00
2023-01-29T15:43:31.798Z,-3.04
2023-01-29T15:46:01.601Z,-3.06
2023-01-29T15:48:36.234Z,-3.08
2023-01-29T15:51:07.189Z,-3.09
2023-01-29T15:53:40.905Z,-3.10
2023-01-29T15:56:12.358Z,-3.11
2023-01-29T15:58:39.400Z,-3.12
2023-01-29T16:01:06.745Z,-3.14
2023-01-29T16:03:34.791Z,-3.11
2023-01-29T16:06:02.381Z,-3.08
2023-01-29T16:08:29.413Z,-3.06
2023-01-29T16:10:59.356Z,-3.04
2023-01-29T16:13:29.824Z,-3.00
2023-01-29T16:16:01.592Z,-2.97
2023-01-29T16:18:36.303Z,-2.94
2023-01-29T16:21:15.727Z,-2.92
2023-01-29T16:23:45.762Z,-2.89
2023-01-29T16:26:16.813Z,-2.89
2023-01-29T16:28:45.798Z,-2.87
2023-01-29T16:31:14.258Z,-2.87
2023-01-29T16:33:43.319Z,-2.89
2023-01-29T16:36:22.515Z,-2.92
2023-01-29T16:38:56.949Z,-2.96
2023-01-29T16:41:23.361Z,-3.01
2023-01-29T16:44:03.360Z,-3.06
2023-01-29T16:46:37.417Z,-3.12
2023-01-29T16:49:26.148Z,-3.17
2023-01-29T16:51:53.797Z,-3.20
2023-01-29T16:54:25.589Z,-3.22
2023-01-29T16:56:55.798Z,-3.25
2023-01-29T16:59:31.224Z,-3.25
2023-01-29T17:01:58.782Z,-3.24
2023-01-29T17:04:25.284Z,-3.22
2023-01-29T17:07:01.189Z,-3.21
2023-01-29T17:09:32.107Z,-3.18
2023-01-29T17:12:01.886Z,-3.14
2023-01-29T17:14:31.352Z,-3.12
2023-01-29T17:17:06.530Z,-3.11
2023-01-29T17:19:33.687Z,-3.10
2023-01-29T17:22:00.307Z,-3.09
2023-01-29T17:24:26.936Z,-3.11
2023-01-29T17:26:54.037Z,-3.11
2023-01-29T17:29:31.198Z,-3.10
2023-01-29T17:31:58.071Z,-3.10
2023-01-29T17:34:24.663Z,-3.09
2023-01-29T17:36:51.521Z,-3.09
2023-01-29T17:39:24.458Z,-3.08
2023-01-29T17:41:56.320Z,-3.09
2023-01-29T17:44:23.207Z,-3.09
2023-01-29T17:46:49.988Z,-3.08
2023-01-29T17:49:25.607Z,-3.07
2023-01-29T17:51:53.587Z,-3.06
2023-01-29T17:54:20.715Z,-3.05
2023-01-29T17:56:48.202Z,-3.06
2023-01-29T17:59:17.008Z,-3.06
2023-01-29T18:01:43.943Z,-3.07
2023-01-29T18:04:11.639Z,-3.09
2023-01-29T18:06:39.947Z,-3.10
2023-01-29T18:09:06.841Z,-3.13
2023-01-29T18:11:34.350Z,-3.15
2023-01-29T18:14:11.359Z,-3.20
2023-01-29T18:16:42.344Z,-3.26
2023-01-29T18:19:24.118Z,-3.30
2023-01-29T18:21:50.568Z,-3.34
2023-01-29T18:24:17.202Z,-3.37
2023-01-29T18:26:43.728Z,-3.41
2023-01-29T18:29:10.226Z,-3.42
2023-01-29T18:31:37.293Z,-3.43
2023-01-29T18:34:04.295Z,-3.44
2023-01-29T18:36:31.060Z,-3.44
2023-01-29T18:38:58.295Z,-3.44
2023-01-29T18:41:24.827Z,-3.44
2023-01-29T18:43:52.087Z,-3.45
2023-01-29T18:46:19.870Z,-3.45
2023-01-29T18:48:46.622Z,-3.44
2023-01-29T18:51:13.151Z,-3.45
2023-01-29T18:53:39.699Z,-3.46
2023-01-29T18:56:07.637Z,-3.46
2023-01-29T18:58:36.623Z,-3.44
2023-01-29T19:01:10.424Z,-3.43
2023-01-29T19:03:38.386Z,-3.40
2023-01-29T19:06:07.154Z,-3.37
2023-01-29T19:08:34.309Z,-3.35
2023-01-29T19:11:01.244Z,-3.33
2023-01-29T19:13:31.748Z,-3.31
2023-01-29T19:15:58.848Z,-3.28
2023-01-29T19:18:25.457Z,-3.26
2023-01-29T19:20:52.716Z,-3.23
2023-01-29T19:23:19.579Z,-3.20
2023-01-29T19:25:46.427Z,-3.17
2023-01-29T19:28:13.361Z,-3.14
2023-01-29T19:30:40.866Z,-3.09
2023-01-29T19:33:07.775Z,-3.05
2023-01-29T19:35:34.619Z,-3.02
2023-01-29T19:38:01.469Z,-2.98
2023-01-29T19:40:28.310Z,-2.95
2023-01-29T19:42:55.470Z,-2.93
2023-01-29T19:45:37.328Z,-2.93
2023-01-29T19:48:09.235Z,-2.93
2023-01-29T19:50:35.648Z,-2.94
2023-01-29T19:53:02.201Z,-2.97
2023-01-29T19:55:28.647Z,-3.01
2023-01-29T19:57:55.690Z,-3.03
2023-01-29T20:00:22.448Z,-3.04
2023-01-29T20:02:49.176Z,-3.06
2023-01-29T20:05:16.204Z,-3.08
2023-01-29T20:07:43.178Z,-3.09
2023-01-29T20:10:11.450Z,-3.11
2023-01-29T20:12:38.204Z,-3.13
2023-01-29T20:15:06.196Z,-3.16
2023-01-29T20:17:33.032Z,-3.17
2023-01-29T20:19:59.765Z,-3.17
2023-01-29T20:22:26.819Z,-3.15
2023-01-29T20:24:54.202Z,-3.13
2023-01-29T20:27:20.673Z,-3.13
2023-01-29T20:29:47.151Z,-3.13
2023-01-29T20:32:13.956Z,-3.10
2023-01-29T20:34:41.470Z,-3.07
2023-01-29T20:37:08.212Z,-3.04
2023-01-29T20:39:34.840Z,-3.01
2023-01-29T20:42:01.701Z,-2.97
2023-01-29T20:44:28.450Z,-2.95
2023-01-29T20:46:55.179Z,-2.94
2023-01-29T20:49:21.682Z,-2.95
2023-01-29T20:51:48.163Z,-2.95
2023-01-29T20:54:14.904Z,-2.96
2023-01-29T20:56:44.116Z,-3.02
2023-01-29T20:59:14.079Z,-3.07
2023-01-29T21:01:41.539Z,-3.12
2023-01-29T21:04:08.034Z,-3.15
2023-01-29T21:06:34.666Z,-3.16
2023-01-29T21:09:01.315Z,-3.15
2023-01-29T21:11:27.945Z,-3.16
2023-01-29T21:13:54.506Z,-3.17
2023-01-29T21:16:21.172Z,-3.18
2023-01-29T21:18:47.701Z,-3.18
2023-01-29T21:21:14.315Z,-3.19
2023-01-29T21:23:40.861Z,-3.23
2023-01-29T21:26:07.338Z,-3.24
2023-01-29T21:28:34.865Z,-3.24
2023-01-29T21:31:06.832Z,-3.25
2023-01-29T21:33:33.475Z,-3.24
2023-01-29T21:36:01.006Z,-3.23
2023-01-29T21:38:27.713Z,-3.21
2023-01-29T21:40:59.935Z,-3.18
2023-01-29T21:43:26.612Z,-3.16
2023-01-29T21:46:01.251Z,-3.16
2023-01-29T21:48:27.779Z,-3.14
2023-01-29T21:50:54.208Z,-3.14
2023-01-29T21:53:20.747Z,-3.13
2023-01-29T21:55:47.723Z,-3.12
2023-01-29T21:58:14.726Z,-3.09
2023-01-29T22:00:41.703Z,-3.06
2023-01-29T22:03:08.275Z,-3.04
2023-01-29T22:05:34.791Z,-3.01
2023-01-29T22:08:01.633Z,-3.01
2023-01-29T22:10:28.476Z,-3.02
2023-01-29T22:12:54.898Z,-3.01
2023-01-29T22:15:23.586Z,-3.00
2023-01-29T22:17:51.061Z,-3.00
2023-01-29T22:20:18.342Z,-2.98
2023-01-29T22:22:45.061Z,-2.97
2023-01-29T22:25:11.553Z,-2.97
2023-01-29T22:27:37.997Z,-2.98
2023-01-29T22:30:05.865Z,-3.01
2023-01-29T22:32:32.819Z,-3.03
2023-01-29T22:34:59.404Z,-3.06
2023-01-29T22:37:25.894Z,-3.08
2023-01-29T22:39:52.380Z,-3.10
2023-01-29T22:42:19.653Z,-3.09
2023-01-29T22:44:46.097Z,-3.11
2023-01-29T22:47:12.543Z,-3.13
2023-01-29T22:49:39.059Z,-3.15
2023-01-29T22:52:05.579Z,-3.17
2023-01-29T22:54:32.031Z,-3.20
2023-01-29T22:56:58.516Z,-3.25
2023-01-29T22:59:25.218Z,-3.29
2023-01-29T23:01:51.841Z,-3.33
2023-01-29T23:04:18.337Z,-3.37
2023-01-29T23:06:44.854Z,-3.43
2023-01-29T23:09:11.419Z,-3.48
2023-01-29T23:11:37.848Z,-3.51
2023-01-29T23:14:04.582Z,-3.57
2023-01-29T23:16:31.274Z,-3.61
2023-01-29T23:18:57.798Z,-3.64
2023-01-29T23:21:25.767Z,-3.68
2023-01-29T23:23:52.603Z,-3.69
2023-01-29T23:26:19.112Z,-3.70
2023-01-29T23:28:46.117Z,-3.70
2023-01-29T23:31:13.549Z,-3.67
2023-01-29T23:33:40.443Z,-3.65
2023-01-29T23:36:07.876Z,-3.62
2023-01-29T23:38:34.363Z,-3.59
2023-01-29T23:41:01.008Z,-3.56
2023-01-29T23:43:30.468Z,-3.54
2023-01-29T23:45:57.421Z,-3.51
2023-01-29T23:48:24.822Z,-3.47
2023-01-29T23:50:51.879Z,-3.45
2023-01-29T23:53:18.619Z,-3.42
2023-01-29T23:55:56.143Z,-3.41
2023-01-29T23:58:23.063Z,-3.41
